Terminal Aerodrome Forecast
Issued by NWS Charleston, WV

Current Version | Previous Version | Graphics & Text | Print | Product List | Glossary On
Versions: 1 2 3 4 5 6 7 8 9 10 11 12 13 14 15 16 17 18 19 20 21
000
FTUS41 KRLX 160500
TAFEKN
TAF
KEKN 160525Z 1606/1706 00000KT 6SM BR SCT025 BKN035
     FM160800 00000KT 4SM BR BKN025
     FM161300 31003KT 3SM BR OVC012
     FM161500 VRB03KT P6SM BKN015
     FM161800 33005KT P6SM BKN035
     FM162100 31004KT P6SM SCT040=

USA.gov is the U.S. government's official web portal to all federal, state and local government web resources and services.